Time;durP1;ratioP1;P1;durP2;ratioP2;P2;SDS_P1;SDS_P2;PMS_P1;PMS_P2;Temp;Humidity;BMP_temperature;BMP_pressure;BME280_temperature;BME280_humidity;BME280_pressure;Samples;Min_cycle;Max_cycle;Signal;HPM_P1;HPM_P2
2023/10/11 00:08:43;;;;;;;;;;;18.90;99.90;;;;;;6755607;88;20055;-82
2023/10/11 00:18:44;;;;;;;;;;;18.70;99.90;;;;;;6757040;88;20095;-82
2023/10/11 00:28:44;;;;;;;;;;;18.90;99.90;;;;;;6758481;88;20084;-81
2023/10/11 00:38:47;;;;;;;;;;;19.00;99.90;;;;;;6755998;88;20062;-80
2023/10/11 00:49:09;;;;;;;;;;;19.00;99.90;;;;;;6760581;88;20082;-81
2023/10/11 00:59:12;;;;;;;;;;;19.00;99.90;;;;;;6752040;88;20113;-82
2023/10/11 01:09:17;;;;;;;;;;;18.80;99.90;;;;;;6751059;88;20090;-81
2023/10/11 01:19:18;;;;;;;;;;;18.70;99.90;;;;;;6741378;88;20100;-81
2023/10/11 01:29:18;;;;;;;;;;;18.00;99.90;;;;;;6748563;88;20059;-82
2023/10/11 01:39:21;;;;;;;;;;;17.70;99.90;;;;;;6752989;88;20107;-82
2023/10/11 01:49:22;;;;;;;;;;;17.40;99.90;;;;;;6741059;88;22452;-81
2023/10/11 01:59:22;;;;;;;;;;;17.00;99.90;;;;;;6751912;88;20184;-81
2023/10/11 02:09:23;;;;;;;;;;;16.60;99.90;;;;;;6743835;88;20130;-82
2023/10/11 02:19:24;;;;;;;;;;;16.30;99.90;;;;;;6741418;88;20173;-81
2023/10/11 02:29:25;;;;;;;;;;;16.20;99.90;;;;;;6749885;88;20180;-81
2023/10/11 02:39:31;;;;;;;;;;;16.00;99.90;;;;;;6751366;88;20253;-81
2023/10/11 02:49:32;;;;;;;;;;;15.80;99.90;;;;;;6762688;88;20072;-81
2023/10/11 02:59:33;;;;;;;;;;;15.60;99.90;;;;;;6747370;88;20067;-82
2023/10/11 03:09:33;;;;;;;;;;;15.70;99.90;;;;;;6743789;88;20027;-81
2023/10/11 03:19:42;;;;;;;;;;;15.80;99.90;;;;;;6741148;88;20047;-81
2023/10/11 03:29:45;;;;;;;;;;;15.70;99.90;;;;;;6741035;88;20051;-81
2023/10/11 03:49:52;;;;;;;;;;;15.20;99.90;;;;;;6752475;88;20049;-81
2023/10/11 03:59:53;;;;;;;;;;;15.00;99.90;;;;;;6714815;88;20099;-82
2023/10/11 04:10:04;;;;;;;;;;;14.70;99.90;;;;;;6714811;88;20071;-82
2023/10/11 04:20:21;;;;;;;;;;;14.50;99.90;;;;;;6697871;89;20084;-82
2023/10/11 04:30:40;;;;;;;;;;;14.50;99.90;;;;;;6726369;88;20258;-81
2023/10/11 04:40:42;;;;;;;;;;;14.30;99.90;;;;;;6734073;88;20044;-80
2023/10/11 04:50:45;;;;;;;;;;;14.40;99.90;;;;;;6750403;88;20062;-80
2023/10/11 05:00:47;;;;;;;;;;;14.50;99.90;;;;;;6747287;88;20027;-81
2023/10/11 05:10:50;;;;;;;;;;;14.40;99.90;;;;;;6750235;88;20126;-81
2023/10/11 05:21:04;;;;;;;;;;;14.50;99.90;;;;;;6749941;88;20058;-81
2023/10/11 05:51:43;;;;;;;;;;;14.30;99.90;;;;;;6750732;88;20035;-81
2023/10/11 06:01:44;;;;;;;;;;;14.70;99.90;;;;;;6754629;88;20505;-81
2023/10/11 06:11:48;;;;;;;;;;;14.40;99.90;;;;;;6752985;88;20273;-82
2023/10/11 06:32:22;;;;;;;;;;;14.40;99.90;;;;;;6701094;88;20034;-81
2023/10/11 06:42:23;;;;;;;;;;;14.60;99.90;;;;;;6734305;88;20040;-84
2023/10/11 06:52:25;;;;;;;;;;;14.80;99.90;;;;;;6737588;88;20032;-81
2023/10/11 07:02:31;;;;;;;;;;;15.40;99.90;;;;;;6737208;88;20031;-81
2023/10/11 07:12:39;;;;;;;;;;;15.90;99.90;;;;;;6734727;88;20124;-80
2023/10/11 07:22:39;;;;;;;;;;;16.10;99.90;;;;;;6752065;88;20133;-80
2023/10/11 07:32:40;;;;;;;;;;;16.90;99.90;;;;;;6751569;88;20082;-80
2023/10/11 07:42:40;;;;;;;;;;;18.00;99.90;;;;;;6751250;88;20064;-81
2023/10/11 07:52:42;;;;;;;;;;;20.90;99.90;;;;;;6751049;88;20802;-80
2023/10/11 08:02:43;;;;;;;;;;;20.00;99.90;;;;;;6750870;88;20849;-80
2023/10/11 08:12:45;;;;;;;;;;;19.80;99.90;;;;;;6738334;88;20167;-78
2023/10/11 08:22:48;;;;;;;;;;;19.30;99.90;;;;;;6720695;88;20050;-81
2023/10/11 08:32:50;;;;;;;;;;;19.70;99.90;;;;;;6732299;88;20111;-79
2023/10/11 08:42:52;;;;;;;;;;;20.10;99.90;;;;;;6747818;88;20102;-82
2023/10/11 08:52:54;;;;;;;;;;;20.50;99.90;;;;;;6749779;88;20068;-79
2023/10/11 09:02:55;;;;;;;;;;;21.00;99.90;;;;;;6747794;87;20035;-79
2023/10/11 09:12:57;;;;;;;;;;;21.70;99.90;;;;;;6748176;88;20055;-80
2023/10/11 09:23:01;;;;;;;;;;;22.30;99.90;;;;;;6747892;88;20056;-81
2023/10/11 09:33:15;;;;;;;;;;;22.90;99.90;;;;;;6745393;88;20056;-81
2023/10/11 09:53:41;;;;;;;;;;;24.20;99.90;;;;;;6762019;77;20114;-83
2023/10/11 10:03:46;;;;;;;;;;;24.60;99.80;;;;;;6751276;88;20031;-81
2023/10/11 10:14:06;;;;;;;;;;;25.50;98.50;;;;;;6754963;77;20052;-82
2023/10/11 10:24:43;;;;;;;;;;;25.60;98.30;;;;;;6767825;88;20051;-82
2023/10/11 10:34:44;;;;;;;;;;;26.30;96.30;;;;;;6696103;89;20034;-81
2023/10/11 10:44:49;;;;;;;;;;;27.50;96.10;;;;;;6697782;88;20811;-82
2023/10/11 10:55:01;;;;;;;;;;;27.50;95.50;;;;;;6697837;88;20060;-83
2023/10/11 11:05:13;;;;;;;;;;;27.50;95.10;;;;;;6708071;88;20082;-82
2023/10/11 11:15:20;;;;;;;;;;;29.30;93.10;;;;;;6749695;88;20036;-83
2023/10/11 11:35:29;;;;;;;;;;;29.40;79.20;;;;;;6751296;88;20044;-82
2023/10/11 11:45:35;;;;;;;;;;;29.40;78.50;;;;;;6751822;88;20106;-81
2023/10/11 11:55:39;;;;;;;;;;;29.90;76.60;;;;;;6751636;88;20019;-80
2023/10/11 12:05:42;;;;;;;;;;;30.40;76.90;;;;;;6751250;88;20055;-81
2023/10/11 12:15:43;;;;;;;;;;;30.20;75.50;;;;;;6751218;88;20055;-81
2023/10/11 12:25:47;;;;;;;;;;;30.20;74.60;;;;;;6768147;88;20018;-82
2023/10/11 12:35:49;;;;;;;;;;;30.60;73.80;;;;;;6758893;88;20034;-80
2023/10/11 12:45:50;;;;;;;;;;;30.20;73.90;;;;;;6764125;88;20110;-81
2023/10/11 12:55:50;;;;;;;;;;;31.50;72.40;;;;;;6754198;88;20104;-82
2023/10/11 13:05:52;;;;;;;;;;;31.00;71.90;;;;;;6749139;88;20115;-82
2023/10/11 13:15:59;;;;;;;;;;;30.90;72.70;;;;;;6765419;88;20051;-81
2023/10/11 13:26:00;;;;;;;;;;;31.20;72.00;;;;;;6767306;88;20345;-81
2023/10/11 13:36:01;;;;;;;;;;;31.60;72.70;;;;;;6767301;88;20140;-81
2023/10/11 13:46:06;;;;;;;;;;;30.70;71.20;;;;;;6767332;88;20043;-81
2023/10/11 13:56:20;;;;;;;;;;;30.60;71.50;;;;;;6765393;88;20056;-81
2023/10/11 14:06:30;;;;;;;;;;;29.90;71.10;;;;;;6766841;88;20111;-82
2023/10/11 14:16:31;;;;;;;;;;;30.00;71.50;;;;;;6768080;88;20073;-82
2023/10/11 14:26:33;;;;;;;;;;;30.60;70.40;;;;;;6769371;88;20281;-81
2023/10/11 14:36:33;;;;;;;;;;;29.60;73.00;;;;;;6769759;88;20045;-82
2023/10/11 14:46:37;;;;;;;;;;;28.70;74.00;;;;;;6766061;88;20048;-82
2023/10/11 14:56:40;;;;;;;;;;;27.90;75.40;;;;;;6769279;88;20043;-81
2023/10/11 15:06:45;;;;;;;;;;;27.10;77.00;;;;;;6765346;88;20095;-82
2023/10/11 15:16:46;;;;;;;;;;;26.80;77.10;;;;;;6768671;88;20072;-83
2023/10/11 15:26:47;;;;;;;;;;;26.40;77.00;;;;;;6767662;88;20643;-82
2023/10/11 15:36:49;;;;;;;;;;;26.00;76.10;;;;;;6750578;88;20145;-82
2023/10/11 15:46:50;;;;;;;;;;;25.70;76.70;;;;;;6751978;88;20092;-82
2023/10/11 15:56:53;;;;;;;;;;;25.40;77.50;;;;;;6751250;88;20104;-82
2023/10/11 16:06:53;;;;;;;;;;;25.10;75.20;;;;;;6731098;88;20054;-83
2023/10/11 16:16:56;;;;;;;;;;;24.90;75.60;;;;;;6747554;88;20536;-84
2023/10/11 16:26:57;;;;;;;;;;;24.60;75.60;;;;;;6751818;88;20080;-80
2023/10/11 16:36:59;;;;;;;;;;;24.30;76.70;;;;;;6735608;88;20055;-82
2023/10/11 16:47:05;;;;;;;;;;;24.00;78.90;;;;;;6746711;88;20075;-79
2023/10/11 16:57:06;;;;;;;;;;;23.70;80.30;;;;;;6763252;88;20031;-83
2023/10/11 17:07:07;;;;;;;;;;;23.40;82.40;;;;;;6767151;88;20669;-82
2023/10/11 17:27:49;;;;;;;;;;;23.10;86.50;;;;;;6731261;88;20046;-76
2023/10/11 17:37:51;;;;;;;;;;;22.90;88.30;;;;;;6720421;88;20075;-76
2023/10/11 17:47:52;;;;;;;;;;;22.90;90.20;;;;;;6721302;88;20100;-75
2023/10/11 17:57:53;;;;;;;;;;;22.70;91.30;;;;;;6724648;88;20083;-77
2023/10/11 18:07:53;;;;;;;;;;;22.60;92.40;;;;;;6724304;88;20111;-77
2023/10/11 18:17:56;;;;;;;;;;;22.70;93.40;;;;;;6718430;88;20612;-77
2023/10/11 18:27:58;;;;;;;;;;;22.60;94.60;;;;;;6719237;88;20677;-77
2023/10/11 18:37:59;;;;;;;;;;;22.50;95.70;;;;;;6745432;87;20111;-83
2023/10/11 18:47:59;;;;;;;;;;;22.50;96.80;;;;;;6766514;87;20560;-82
2023/10/11 18:58:00;;;;;;;;;;;22.40;98.40;;;;;;6765591;87;20117;-83
2023/10/11 19:08:01;;;;;;;;;;;22.50;99.20;;;;;;6767462;87;20101;-84
2023/10/11 19:18:05;;;;;;;;;;;22.40;99.90;;;;;;6769652;87;20652;-84
2023/10/11 19:28:08;;;;;;;;;;;22.30;99.90;;;;;;6747954;88;20192;-83
2023/10/11 19:38:09;;;;;;;;;;;22.30;99.90;;;;;;6768738;88;20052;-84
2023/10/11 19:48:11;;;;;;;;;;;22.30;99.90;;;;;;6763007;88;20037;-82
2023/10/11 19:58:14;;;;;;;;;;;22.40;99.90;;;;;;6762095;88;20086;-82
2023/10/11 20:08:15;;;;;;;;;;;22.30;99.90;;;;;;6760995;88;20040;-82
2023/10/11 20:18:18;;;;;;;;;;;22.40;99.90;;;;;;6762710;88;20030;-82
2023/10/11 20:28:19;;;;;;;;;;;22.40;99.90;;;;;;6744488;88;20048;-82
2023/10/11 20:38:22;;;;;;;;;;;22.50;99.90;;;;;;6747779;88;20054;-83
2023/10/11 20:48:22;;;;;;;;;;;22.30;99.90;;;;;;6746997;88;20074;-82
2023/10/11 20:58:23;;;;;;;;;;;22.20;99.90;;;;;;6745262;88;20050;-82
2023/10/11 21:08:27;;;;;;;;;;;22.10;99.90;;;;;;6734302;88;20092;-80
2023/10/11 21:18:28;;;;;;;;;;;22.20;99.90;;;;;;6743005;88;20077;-79
2023/10/11 21:28:29;;;;;;;;;;;22.10;99.90;;;;;;6725197;88;21215;-82
2023/10/11 21:38:30;;;;;;;;;;;22.00;99.90;;;;;;6746473;88;20058;-82
2023/10/11 21:48:51;;;;;;;;;;;22.00;99.90;;;;;;6763152;77;20135;-84
2023/10/11 21:58:51;;;;;;;;;;;22.10;99.90;;;;;;6759684;88;20054;-82
2023/10/11 22:08:52;;;;;;;;;;;21.90;99.90;;;;;;6760820;88;20078;-83
2023/10/11 22:18:52;;;;;;;;;;;21.90;99.90;;;;;;6760463;88;20116;-82
2023/10/11 22:28:53;;;;;;;;;;;22.00;99.90;;;;;;6762683;88;20039;-83
2023/10/11 22:38:53;;;;;;;;;;;21.80;99.90;;;;;;6763871;88;21469;-82
2023/10/11 22:48:54;;;;;;;;;;;21.50;99.90;;;;;;6759948;88;20070;-82
2023/10/11 22:58:55;;;;;;;;;;;21.70;99.90;;;;;;6763878;88;20077;-82
2023/10/11 23:08:57;;;;;;;;;;;21.60;99.90;;;;;;6747043;88;20077;-83
2023/10/11 23:18:57;;;;;;;;;;;21.60;99.90;;;;;;6743677;88;20157;-83
2023/10/11 23:28:58;;;;;;;;;;;21.40;99.90;;;;;;6746240;88;20042;-84
2023/10/11 23:39:04;;;;;;;;;;;21.30;99.90;;;;;;6749026;88;20040;-82
2023/10/11 23:49:08;;;;;;;;;;;21.20;99.90;;;;;;6744856;88;20062;-83
2023/10/11 23:59:14;;;;;;;;;;;21.00;99.90;;;;;;6744144;88;20064;-84
